createdAt,value
2019-05-30T00:00:03.693Z,14.20
2019-05-30T00:02:16.714Z,14.20
2019-05-30T00:04:43.069Z,14.20
2019-05-30T00:07:11.116Z,14.30
2019-05-30T00:09:37.232Z,14.30
2019-05-30T00:12:04.872Z,14.30
2019-05-30T00:14:31.433Z,14.20
2019-05-30T00:16:58.725Z,14.30
2019-05-30T00:19:25.158Z,14.30
2019-05-30T00:21:51.339Z,14.20
2019-05-30T00:24:19.050Z,14.20
2019-05-30T00:26:45.256Z,14.30
2019-05-30T00:29:11.433Z,14.20
2019-05-30T00:31:37.602Z,14.20
2019-05-30T00:34:04.292Z,14.20
2019-05-30T00:36:30.527Z,14.30
2019-05-30T00:38:57.672Z,14.30
2019-05-30T00:41:23.911Z,14.30
2019-05-30T00:43:50.087Z,14.30
2019-05-30T00:46:16.260Z,14.30
2019-05-30T00:48:42.471Z,14.20
2019-05-30T00:51:08.641Z,14.20
2019-05-30T00:53:34.818Z,14.20
2019-05-30T00:56:01.475Z,14.30
2019-05-30T00:58:29.013Z,14.30
2019-05-30T01:00:55.187Z,14.40
2019-05-30T01:03:22.787Z,14.30
2019-05-30T01:05:48.963Z,14.30
2019-05-30T01:08:15.142Z,14.30
2019-05-30T01:10:41.555Z,14.30
2019-05-30T01:13:07.719Z,14.30
2019-05-30T01:15:33.933Z,14.30
2019-05-30T01:18:01.082Z,14.30
2019-05-30T01:20:27.534Z,14.30
2019-05-30T01:22:53.715Z,14.30
2019-05-30T01:25:20.640Z,14.30
2019-05-30T01:27:46.813Z,14.40
2019-05-30T01:30:13.686Z,14.40
2019-05-30T01:32:40.009Z,14.40
2019-05-30T01:35:06.281Z,14.50
2019-05-30T01:37:32.620Z,14.50
2019-05-30T01:39:59.751Z,14.50
2019-05-30T01:42:26.234Z,14.50
2019-05-30T01:44:52.442Z,14.50
2019-05-30T01:47:18.869Z,14.50
2019-05-30T01:49:45.047Z,14.50
2019-05-30T01:52:11.235Z,14.60
2019-05-30T01:54:37.550Z,14.50
2019-05-30T01:57:04.680Z,14.50
2019-05-30T01:59:31.046Z,14.50
2019-05-30T02:01:57.248Z,14.50
2019-05-30T02:04:23.428Z,14.60
2019-05-30T02:06:49.807Z,14.50
2019-05-30T02:09:16.037Z,14.60
2019-05-30T02:11:42.411Z,14.50
2019-05-30T02:14:09.796Z,14.50
2019-05-30T02:16:36.263Z,14.50
2019-05-30T02:19:03.635Z,14.50
2019-05-30T02:21:29.907Z,14.60
2019-05-30T02:23:56.097Z,14.60
2019-05-30T02:26:22.626Z,14.60
2019-05-30T02:28:48.794Z,14.60
2019-05-30T02:31:15.172Z,14.60
2019-05-30T02:33:41.351Z,14.60
2019-05-30T02:36:08.476Z,14.60
2019-05-30T02:38:35.752Z,14.70
2019-05-30T02:41:03.342Z,14.70
2019-05-30T02:43:30.300Z,14.60
2019-05-30T02:45:56.796Z,14.60
2019-05-30T02:48:22.977Z,14.70
2019-05-30T02:50:49.156Z,14.70
2019-05-30T02:53:15.464Z,14.70
2019-05-30T02:55:42.034Z,14.70
2019-05-30T02:58:09.762Z,14.70
2019-05-30T03:00:36.317Z,14.70
2019-05-30T03:03:04.032Z,14.80
2019-05-30T03:05:32.399Z,14.70
2019-05-30T03:07:58.731Z,14.80
2019-05-30T03:10:25.003Z,14.80
2019-05-30T03:12:51.171Z,14.80
2019-05-30T03:15:17.468Z,14.90
2019-05-30T03:17:43.642Z,14.80
2019-05-30T03:20:20.613Z,14.80
2019-05-30T03:22:38.057Z,14.80
2019-05-30T03:25:05.660Z,14.90
2019-05-30T03:27:32.771Z,14.90
2019-05-30T03:29:59.084Z,14.90
2019-05-30T03:34:53.358Z,14.90
2019-05-30T03:37:28.575Z,15.00
2019-05-30T03:39:47.707Z,15.00
2019-05-30T03:42:15.772Z,15.00
2019-05-30T03:44:41.984Z,15.00
2019-05-30T03:47:09.219Z,15.00
2019-05-30T03:49:37.934Z,15.00
2019-05-30T03:52:05.028Z,15.00
2019-05-30T03:54:32.117Z,15.00
2019-05-30T03:57:02.097Z,15.10
2019-05-30T03:59:30.921Z,15.00
2019-05-30T04:02:01.028Z,15.10
2019-05-30T04:04:30.014Z,15.10
2019-05-30T04:07:00.030Z,15.10
2019-05-30T04:09:26.208Z,15.20
2019-05-30T04:11:56.601Z,15.20
2019-05-30T04:14:23.615Z,15.20
2019-05-30T04:16:49.798Z,15.20
2019-05-30T04:19:17.742Z,15.20
2019-05-30T04:21:43.983Z,15.20
2019-05-30T04:24:11.901Z,15.20
2019-05-30T04:26:38.131Z,15.20
2019-05-30T04:29:04.691Z,15.20
2019-05-30T04:31:30.820Z,15.20
2019-05-30T04:33:57.152Z,15.20
2019-05-30T04:36:23.502Z,15.30
2019-05-30T04:38:49.767Z,15.30
2019-05-30T04:41:18.439Z,15.30
2019-05-30T04:43:43.952Z,15.30
2019-05-30T04:46:10.843Z,15.30
2019-05-30T04:48:38.104Z,15.30
2019-05-30T04:51:04.302Z,15.30
2019-05-30T04:53:30.574Z,15.40
2019-05-30T04:55:56.784Z,15.30
2019-05-30T04:58:24.276Z,15.30
2019-05-30T05:00:50.774Z,15.40
2019-05-30T05:03:23.239Z,15.30
2019-05-30T05:05:44.953Z,15.40
2019-05-30T05:08:11.755Z,15.30
2019-05-30T05:10:38.006Z,15.30
2019-05-30T05:13:04.211Z,15.30
2019-05-30T05:15:30.703Z,15.30
2019-05-30T05:17:56.858Z,15.20
2019-05-30T05:20:23.589Z,15.20
2019-05-30T05:22:49.834Z,15.20
2019-05-30T05:25:17.354Z,15.30
2019-05-30T05:27:43.807Z,15.30
2019-05-30T05:30:10.343Z,15.40
2019-05-30T05:32:36.631Z,15.30
2019-05-30T05:35:05.167Z,15.40
2019-05-30T05:37:31.347Z,15.30
2019-05-30T05:39:57.630Z,15.30
2019-05-30T05:42:28.363Z,15.30
2019-05-30T05:44:52.110Z,15.20
2019-05-30T05:47:18.517Z,15.20
2019-05-30T05:49:45.061Z,15.20
2019-05-30T05:52:12.142Z,15.20
2019-05-30T05:54:38.549Z,15.20
2019-05-30T05:57:04.755Z,15.20
2019-05-30T05:59:31.102Z,15.10
2019-05-30T06:01:57.219Z,15.20
2019-05-30T06:04:23.410Z,15.20
2019-05-30T06:06:49.590Z,15.20
2019-05-30T06:09:16.396Z,15.20
2019-05-30T06:11:43.079Z,15.20
2019-05-30T06:14:09.247Z,15.00
2019-05-30T06:16:35.424Z,15.00
2019-05-30T06:19:01.699Z,15.10
2019-05-30T06:21:27.879Z,15.20
2019-05-30T06:23:54.055Z,15.20
2019-05-30T06:26:20.263Z,15.20
2019-05-30T06:28:46.551Z,15.20
2019-05-30T06:31:13.731Z,15.20
2019-05-30T06:33:39.939Z,15.30
2019-05-30T06:36:06.120Z,15.20
2019-05-30T06:38:32.300Z,15.20
2019-05-30T06:40:58.503Z,15.30
2019-05-30T06:43:26.009Z,15.40
2019-05-30T06:45:52.517Z,15.40
2019-05-30T06:48:18.759Z,15.50
2019-05-30T06:50:45.040Z,15.20
2019-05-30T06:53:11.321Z,15.30
2019-05-30T06:55:37.511Z,15.20
2019-05-30T06:58:03.696Z,15.30
2019-05-30T07:00:30.287Z,15.30
2019-05-30T07:02:56.772Z,15.30
2019-05-30T07:05:24.294Z,15.20
2019-05-30T07:07:51.270Z,15.30
2019-05-30T07:10:17.874Z,15.50
2019-05-30T07:12:44.056Z,15.50
2019-05-30T07:15:10.336Z,15.60
2019-05-30T07:17:36.655Z,15.70
2019-05-30T07:20:04.423Z,15.70
2019-05-30T07:22:31.794Z,15.80
2019-05-30T07:24:58.211Z,15.80
2019-05-30T07:27:24.399Z,15.70
2019-05-30T07:29:50.671Z,15.70
2019-05-30T07:32:17.239Z,15.80
2019-05-30T07:34:45.860Z,15.80
2019-05-30T07:37:11.410Z,15.90
2019-05-30T07:39:37.756Z,15.80
2019-05-30T07:42:06.445Z,15.90
2019-05-30T07:44:32.798Z,16.20
2019-05-30T07:46:59.470Z,16.30
2019-05-30T07:49:26.270Z,16.30
2019-05-30T07:51:52.732Z,16.40
2019-05-30T07:54:19.179Z,16.40
2019-05-30T07:56:45.353Z,16.50
2019-05-30T07:59:11.530Z,16.60
2019-05-30T08:01:39.407Z,16.70
2019-05-30T08:04:05.712Z,16.80
2019-05-30T08:06:31.891Z,16.90
2019-05-30T08:08:58.095Z,17.10
2019-05-30T08:11:24.262Z,17.30
2019-05-30T08:13:50.435Z,17.40
2019-05-30T08:16:16.677Z,17.60
2019-05-30T08:18:42.888Z,17.80
2019-05-30T08:21:09.031Z,17.60
2019-05-30T08:23:36.307Z,17.60
2019-05-30T08:26:03.033Z,17.70
2019-05-30T08:28:30.249Z,17.80
2019-05-30T08:30:57.016Z,18.10
2019-05-30T08:33:23.562Z,18.00
2019-05-30T08:35:50.454Z,18.00
2019-05-30T08:38:16.854Z,18.20
2019-05-30T08:40:43.018Z,18.30
2019-05-30T08:43:09.195Z,18.40
2019-05-30T08:45:36.063Z,18.40
2019-05-30T08:48:02.471Z,18.50
2019-05-30T08:50:29.981Z,18.70
2019-05-30T08:52:56.434Z,18.80
2019-05-30T08:55:22.705Z,19.00
2019-05-30T08:57:50.111Z,19.00
2019-05-30T09:00:16.506Z,19.10
2019-05-30T09:02:43.003Z,19.00
2019-05-30T09:05:09.375Z,19.10
2019-05-30T09:07:36.439Z,19.20
2019-05-30T09:10:05.472Z,19.20
2019-05-30T09:12:31.651Z,19.40
2019-05-30T09:14:57.862Z,19.40
2019-05-30T09:17:24.043Z,19.40
2019-05-30T09:19:50.218Z,19.60
2019-05-30T09:22:16.426Z,19.80
2019-05-30T09:24:43.842Z,20.00
2019-05-30T09:27:10.390Z,19.60
2019-05-30T09:29:37.819Z,19.70
2019-05-30T09:32:04.880Z,19.90
2019-05-30T09:34:31.643Z,19.60
2019-05-30T09:36:57.952Z,19.20
2019-05-30T09:39:24.226Z,18.60
2019-05-30T09:41:50.395Z,18.60
2019-05-30T09:44:16.602Z,18.50
2019-05-30T09:46:44.147Z,18.10
2019-05-30T09:49:10.465Z,18.40
2019-05-30T09:51:36.777Z,18.50
2019-05-30T09:54:03.339Z,18.00
2019-05-30T09:56:29.616Z,18.00
2019-05-30T09:58:55.820Z,18.00
2019-05-30T10:01:21.999Z,18.20
2019-05-30T10:03:48.512Z,17.90
2019-05-30T10:06:28.372Z,18.10
2019-05-30T10:08:44.310Z,17.70
2019-05-30T10:11:10.854Z,17.90
2019-05-30T10:13:37.518Z,18.00
2019-05-30T10:16:03.683Z,18.10
2019-05-30T10:18:29.859Z,17.90
2019-05-30T10:20:57.114Z,18.10
2019-05-30T10:23:23.539Z,18.30
2019-05-30T10:25:51.122Z,19.10
2019-05-30T10:28:17.414Z,19.40
2019-05-30T10:30:43.592Z,19.30
2019-05-30T10:33:09.767Z,19.80
2019-05-30T10:35:36.448Z,20.00
2019-05-30T10:38:02.818Z,19.50
2019-05-30T10:40:32.077Z,19.70
2019-05-30T10:42:57.283Z,20.40
2019-05-30T10:45:25.667Z,20.90
2019-05-30T10:47:51.848Z,21.20
2019-05-30T10:50:18.253Z,21.20
2019-05-30T10:52:45.353Z,21.50
2019-05-30T10:55:11.616Z,21.40
2019-05-30T10:57:38.032Z,21.40
2019-05-30T11:00:09.564Z,21.20
2019-05-30T11:02:35.491Z,21.10
2019-05-30T11:05:05.019Z,21.10
2019-05-30T11:07:35.010Z,21.00
2019-05-30T11:10:05.007Z,20.80
2019-05-30T11:12:31.203Z,21.10
2019-05-30T11:14:57.873Z,21.30
2019-05-30T11:17:24.094Z,21.20
2019-05-30T11:19:51.696Z,21.20
2019-05-30T11:22:18.238Z,21.60
2019-05-30T11:24:44.438Z,21.30
2019-05-30T11:27:10.719Z,21.40
2019-05-30T11:29:36.898Z,20.80
2019-05-30T11:32:03.170Z,21.00
2019-05-30T11:34:29.378Z,20.60
2019-05-30T11:36:57.161Z,20.90
2019-05-30T11:39:23.486Z,21.10
2019-05-30T11:41:49.691Z,21.20
2019-05-30T11:44:15.960Z,21.40
2019-05-30T11:46:42.138Z,21.30
2019-05-30T11:49:08.374Z,21.10
2019-05-30T11:51:34.554Z,21.40
2019-05-30T11:54:01.192Z,21.70
2019-05-30T11:56:27.538Z,21.70
2019-05-30T11:58:53.970Z,21.90
2019-05-30T12:01:20.436Z,21.90
2019-05-30T12:03:46.641Z,21.90
2019-05-30T12:06:12.818Z,21.30
2019-05-30T12:08:39.005Z,21.30
2019-05-30T12:11:05.335Z,21.50
2019-05-30T12:13:31.691Z,21.50
2019-05-30T12:15:57.851Z,21.70
2019-05-30T12:18:24.444Z,21.70
2019-05-30T12:20:51.684Z,21.70
2019-05-30T12:23:18.025Z,21.70
2019-05-30T12:25:44.222Z,21.70
2019-05-30T12:28:10.416Z,21.30
2019-05-30T12:30:36.585Z,21.30
2019-05-30T12:33:03.088Z,21.20
2019-05-30T12:35:29.262Z,21.50
2019-05-30T12:38:01.420Z,21.70
2019-05-30T12:40:24.672Z,21.40
2019-05-30T12:42:53.845Z,21.00
2019-05-30T12:45:18.977Z,20.70
2019-05-30T12:47:45.443Z,21.40
2019-05-30T12:50:11.827Z,21.70
2019-05-30T12:52:38.172Z,21.40
2019-05-30T12:55:06.782Z,21.50
2019-05-30T12:57:33.065Z,21.80
2019-05-30T12:59:59.238Z,21.80
2019-05-30T13:02:25.438Z,22.10
2019-05-30T13:04:51.783Z,22.10
2019-05-30T13:07:18.097Z,22.30
2019-05-30T13:09:44.267Z,22.60
2019-05-30T13:12:10.542Z,22.20
2019-05-30T13:14:36.719Z,22.00
2019-05-30T13:17:04.024Z,22.10
2019-05-30T13:19:30.785Z,22.20
2019-05-30T13:21:57.165Z,22.10
2019-05-30T13:24:23.511Z,22.40
2019-05-30T13:26:49.650Z,22.80
2019-05-30T13:29:15.918Z,22.90
2019-05-30T13:31:42.424Z,23.00
2019-05-30T13:34:08.667Z,22.90
2019-05-30T13:36:34.938Z,23.20
2019-05-30T13:39:03.374Z,22.40
2019-05-30T13:41:29.552Z,22.30
2019-05-30T13:43:55.792Z,21.90
2019-05-30T13:46:22.270Z,21.40
2019-05-30T13:48:48.541Z,21.50
2019-05-30T13:51:14.722Z,21.20
2019-05-30T13:53:41.044Z,21.40
2019-05-30T13:56:07.793Z,21.50
2019-05-30T13:58:34.106Z,21.40
2019-05-30T14:01:04.887Z,21.50
2019-05-30T14:03:28.434Z,21.50
2019-05-30T14:05:54.606Z,21.30
2019-05-30T14:08:20.815Z,21.20
2019-05-30T14:10:47.244Z,21.00
2019-05-30T14:13:13.382Z,21.30
2019-05-30T14:15:39.588Z,21.20
2019-05-30T14:18:07.138Z,21.20
2019-05-30T14:20:33.554Z,21.40
2019-05-30T14:23:01.163Z,21.20
2019-05-30T14:25:27.478Z,21.50
2019-05-30T14:27:53.660Z,21.50
2019-05-30T14:30:19.962Z,21.60
2019-05-30T14:32:46.336Z,21.40
2019-05-30T14:35:13.992Z,21.60
2019-05-30T14:37:40.536Z,21.40
2019-05-30T14:40:10.846Z,21.30
2019-05-30T14:42:37.454Z,21.60
2019-05-30T14:45:06.302Z,21.70
2019-05-30T14:47:32.846Z,21.60
2019-05-30T14:49:59.035Z,21.80
2019-05-30T14:52:25.230Z,21.60
2019-05-30T14:54:51.410Z,21.50
2019-05-30T14:57:17.782Z,21.50
2019-05-30T14:59:44.180Z,21.30
2019-05-30T15:02:11.282Z,21.90
2019-05-30T15:04:37.634Z,22.00
2019-05-30T15:07:03.899Z,22.00
2019-05-30T15:09:31.235Z,21.50
2019-05-30T15:11:57.413Z,22.00
2019-05-30T15:14:23.611Z,22.50
2019-05-30T15:16:49.795Z,22.80
2019-05-30T15:19:16.547Z,22.60
2019-05-30T15:21:42.883Z,22.90
2019-05-30T15:24:09.750Z,22.70
2019-05-30T15:26:36.131Z,22.60
2019-05-30T15:29:02.663Z,22.70
2019-05-30T15:31:28.851Z,22.50
2019-05-30T15:33:55.122Z,23.10
2019-05-30T15:36:21.322Z,23.30
2019-05-30T15:38:47.595Z,23.80
2019-05-30T15:41:15.280Z,24.20
2019-05-30T15:43:41.866Z,24.80
2019-05-30T15:46:08.063Z,24.80
2019-05-30T15:48:34.230Z,24.60
2019-05-30T15:51:00.575Z,24.40
2019-05-30T15:53:26.845Z,23.90
2019-05-30T15:55:53.115Z,23.30
2019-05-30T15:58:20.505Z,23.50
2019-05-30T16:00:46.914Z,23.60
2019-05-30T16:03:14.607Z,24.30
2019-05-30T16:05:41.093Z,25.00
2019-05-30T16:08:07.275Z,25.90
2019-05-30T16:10:36.646Z,26.60
2019-05-30T16:13:01.638Z,26.70
2019-05-30T16:15:27.870Z,26.70
2019-05-30T16:17:54.045Z,27.00
2019-05-30T16:20:20.344Z,27.10
2019-05-30T16:22:46.619Z,27.20
2019-05-30T16:25:13.754Z,26.80
2019-05-30T16:27:40.099Z,26.10
2019-05-30T16:30:07.687Z,26.20
2019-05-30T16:32:34.285Z,26.80
2019-05-30T16:35:00.496Z,27.00
2019-05-30T16:37:26.662Z,26.80
2019-05-30T16:40:05.322Z,26.10
2019-05-30T16:42:22.366Z,25.70
2019-05-30T16:44:48.606Z,25.90
2019-05-30T16:47:14.783Z,26.60
2019-05-30T16:49:41.102Z,27.00
2019-05-30T16:52:07.320Z,26.90
2019-05-30T16:54:33.595Z,27.50
2019-05-30T16:56:59.798Z,26.80
2019-05-30T16:59:26.901Z,26.70
2019-05-30T17:01:57.659Z,26.40
2019-05-30T17:04:21.302Z,25.80
2019-05-30T17:06:47.552Z,25.30
2019-05-30T17:09:15.088Z,25.00
2019-05-30T17:11:41.462Z,23.70
2019-05-30T17:14:07.750Z,23.50
2019-05-30T17:16:33.997Z,23.30
2019-05-30T17:19:00.202Z,23.80
2019-05-30T17:21:26.819Z,24.70
2019-05-30T17:23:53.046Z,23.90
2019-05-30T17:26:21.129Z,23.40
2019-05-30T17:28:47.446Z,23.80
2019-05-30T17:31:13.629Z,24.00
2019-05-30T17:33:39.826Z,24.50
2019-05-30T17:36:05.997Z,24.90
2019-05-30T17:38:32.174Z,24.20
2019-05-30T17:40:58.372Z,23.10
2019-05-30T17:43:25.090Z,22.70
2019-05-30T17:45:51.414Z,23.30
2019-05-30T17:48:17.737Z,23.50
2019-05-30T17:50:44.011Z,23.50
2019-05-30T17:53:10.199Z,23.70
2019-05-30T17:55:36.390Z,22.60
2019-05-30T17:58:02.773Z,22.90
2019-05-30T18:00:30.539Z,23.10
2019-05-30T18:02:57.251Z,22.80
2019-05-30T18:05:24.599Z,23.10
2019-05-30T18:07:50.886Z,23.20
2019-05-30T18:10:17.882Z,23.10
2019-05-30T18:12:44.064Z,24.00
2019-05-30T18:15:12.226Z,24.60
2019-05-30T18:17:38.438Z,25.20
2019-05-30T18:20:06.626Z,25.60
2019-05-30T18:22:32.794Z,25.20
2019-05-30T18:24:59.046Z,25.60
2019-05-30T18:27:25.922Z,25.60
2019-05-30T18:29:52.294Z,25.10
2019-05-30T18:32:18.506Z,25.00
2019-05-30T18:34:44.684Z,25.20
2019-05-30T18:37:10.963Z,25.10
2019-05-30T18:39:37.152Z,24.60
2019-05-30T18:42:03.522Z,24.10
2019-05-30T18:44:32.739Z,23.30
2019-05-30T18:46:57.884Z,22.70
2019-05-30T18:49:25.002Z,22.30
2019-05-30T18:51:51.334Z,22.10
2019-05-30T18:54:17.667Z,21.90
2019-05-30T18:56:43.843Z,21.80
2019-05-30T18:59:10.111Z,21.40
2019-05-30T19:01:37.756Z,21.40
2019-05-30T19:04:04.396Z,21.20
2019-05-30T19:06:31.948Z,21.00
2019-05-30T19:08:58.409Z,20.90
2019-05-30T19:11:29.598Z,21.10
2019-05-30T19:13:52.563Z,21.00
2019-05-30T19:16:18.849Z,20.90
2019-05-30T19:18:45.056Z,20.70
2019-05-30T19:21:11.198Z,20.70
2019-05-30T19:23:39.678Z,20.60
2019-05-30T19:26:05.507Z,20.40
2019-05-30T19:28:32.539Z,20.30
2019-05-30T19:30:58.880Z,20.20
2019-05-30T19:33:25.060Z,20.20
2019-05-30T19:35:51.225Z,20.10
2019-05-30T19:38:17.439Z,20.00
2019-05-30T19:40:43.608Z,19.90
2019-05-30T19:43:09.782Z,19.80
2019-05-30T19:45:36.287Z,19.80
2019-05-30T19:48:02.866Z,19.80
2019-05-30T19:50:29.031Z,19.70
2019-05-30T19:52:55.443Z,19.60
2019-05-30T19:55:21.802Z,19.60
2019-05-30T19:57:48.290Z,19.50
2019-05-30T20:00:14.630Z,19.50
2019-05-30T20:02:40.809Z,19.40
2019-05-30T20:05:07.792Z,19.30
2019-05-30T20:07:34.629Z,19.20
2019-05-30T20:10:02.127Z,19.20
2019-05-30T20:12:28.465Z,19.10
2019-05-30T20:14:54.655Z,19.00
2019-05-30T20:17:20.834Z,19.00
2019-05-30T20:19:47.030Z,18.90
2019-05-30T20:22:13.234Z,18.90
2019-05-30T20:24:40.512Z,18.90
2019-05-30T20:27:06.891Z,18.80
2019-05-30T20:29:33.258Z,18.70
2019-05-30T20:31:59.427Z,18.80
2019-05-30T20:34:25.603Z,18.80
2019-05-30T20:36:51.910Z,18.70
2019-05-30T20:39:18.095Z,18.60
2019-05-30T20:41:44.258Z,18.60
2019-05-30T20:44:10.562Z,18.50
2019-05-30T20:46:37.282Z,18.50
2019-05-30T20:49:03.547Z,18.40
2019-05-30T20:51:29.807Z,18.30
2019-05-30T20:53:55.922Z,18.20
2019-05-30T20:56:22.102Z,18.20
2019-05-30T20:58:48.308Z,18.20
2019-05-30T21:01:14.486Z,18.20
2019-05-30T21:03:41.741Z,18.20
2019-05-30T21:06:08.411Z,18.10
2019-05-30T21:08:35.485Z,18.10
2019-05-30T21:11:01.659Z,18.10
2019-05-30T21:13:30.267Z,18.10
2019-05-30T21:15:56.443Z,18.00
2019-05-30T21:18:22.615Z,17.80
2019-05-30T21:20:48.959Z,17.80
2019-05-30T21:23:15.235Z,17.80
2019-05-30T21:25:43.062Z,17.60
2019-05-30T21:28:09.780Z,17.60
2019-05-30T21:30:36.764Z,17.50
2019-05-30T21:33:03.343Z,17.50
2019-05-30T21:35:29.882Z,17.40
2019-05-30T21:37:56.227Z,17.30
2019-05-30T21:40:22.399Z,17.30
2019-05-30T21:43:04.331Z,17.30
2019-05-30T21:45:17.165Z,17.30
2019-05-30T21:47:44.748Z,17.20
2019-05-30T21:50:11.281Z,17.10
2019-05-30T21:52:37.462Z,17.10
2019-05-30T21:55:04.780Z,17.00
2019-05-30T21:57:30.968Z,17.00
2019-05-30T21:59:57.136Z,16.90
2019-05-30T22:02:23.310Z,16.90
2019-05-30T22:04:50.707Z,16.80
2019-05-30T22:07:17.312Z,16.80
2019-05-30T22:09:43.466Z,16.80
2019-05-30T22:12:09.775Z,16.70
2019-05-30T22:14:35.946Z,16.70
2019-05-30T22:17:02.129Z,16.60
2019-05-30T22:19:28.328Z,16.60
2019-05-30T22:21:54.611Z,16.60
2019-05-30T22:24:20.806Z,16.50
2019-05-30T22:26:48.235Z,16.50
2019-05-30T22:29:14.827Z,16.50
2019-05-30T22:31:42.410Z,16.40
2019-05-30T22:34:08.807Z,16.40
2019-05-30T22:36:34.991Z,16.30
2019-05-30T22:39:01.196Z,16.30
2019-05-30T22:41:27.491Z,16.20
2019-05-30T22:43:53.673Z,16.20
2019-05-30T22:46:20.051Z,16.10
2019-05-30T22:48:46.622Z,16.20
2019-05-30T22:51:12.799Z,16.10
2019-05-30T22:53:38.978Z,16.10
2019-05-30T22:56:05.684Z,16.00
2019-05-30T22:58:31.862Z,16.00
2019-05-30T23:00:58.042Z,16.00
2019-05-30T23:03:24.358Z,15.90
2019-05-30T23:05:51.503Z,15.90
2019-05-30T23:08:17.823Z,15.90
2019-05-30T23:10:44.027Z,15.90
2019-05-30T23:13:10.223Z,15.80
2019-05-30T23:15:36.382Z,15.70
2019-05-30T23:18:02.962Z,15.70
2019-05-30T23:20:29.135Z,15.70
2019-05-30T23:22:55.509Z,15.60
2019-05-30T23:25:21.829Z,15.60
2019-05-30T23:27:47.982Z,15.60
2019-05-30T23:30:14.254Z,15.60
2019-05-30T23:32:40.458Z,15.60
2019-05-30T23:35:06.845Z,15.50
2019-05-30T23:37:33.174Z,15.60
2019-05-30T23:39:59.433Z,15.50
2019-05-30T23:42:25.609Z,15.40
2019-05-30T23:44:51.786Z,15.40
2019-05-30T23:47:18.282Z,15.40
2019-05-30T23:49:45.650Z,15.40
2019-05-30T23:52:11.926Z,15.30
2019-05-30T23:54:38.317Z,15.30
2019-05-30T23:57:04.479Z,15.30
2019-05-30T23:59:30.652Z,15.20
